sensor_id;sensor_type;location;lat;lon;timestamp;temperature;humidity
45765;DHT22;31474;45.332;10.230;2023-03-03T00:01:18;6.40;99.90
45765;DHT22;31474;45.332;10.230;2023-03-03T00:03:44;6.40;99.90
45765;DHT22;31474;45.332;10.230;2023-03-03T00:06:12;6.40;99.90
45765;DHT22;31474;45.332;10.230;2023-03-03T00:08:38;6.30;99.90
45765;DHT22;31474;45.332;10.230;2023-03-03T00:11:04;6.30;99.90
45765;DHT22;31474;45.332;10.230;2023-03-03T00:13:36;6.30;99.90
45765;DHT22;31474;45.332;10.230;2023-03-03T00:18:47;6.30;99.90
45765;DHT22;31474;45.332;10.230;2023-03-03T00:21:29;6.20;99.90
45765;DHT22;31474;45.332;10.230;2023-03-03T00:24:22;6.20;99.90
45765;DHT22;31474;45.332;10.230;2023-03-03T00:26:53;6.20;99.90
45765;DHT22;31474;45.332;10.230;2023-03-03T00:31:53;6.20;99.90
45765;DHT22;31474;45.332;10.230;2023-03-03T00:34:26;6.20;99.90
45765;DHT22;31474;45.332;10.230;2023-03-03T00:36:57;6.20;99.90
45765;DHT22;31474;45.332;10.230;2023-03-03T00:39:37;6.20;99.90
45765;DHT22;31474;45.332;10.230;2023-03-03T00:42:16;6.30;99.90
45765;DHT22;31474;45.332;10.230;2023-03-03T00:45:16;6.30;99.90
45765;DHT22;31474;45.332;10.230;2023-03-03T00:47:36;6.30;99.90
45765;DHT22;31474;45.332;10.230;2023-03-03T00:52:34;6.30;99.90
45765;DHT22;31474;45.332;10.230;2023-03-03T00:55:00;6.30;99.90
45765;DHT22;31474;45.332;10.230;2023-03-03T00:57:26;6.30;99.90
45765;DHT22;31474;45.332;10.230;2023-03-03T00:59:53;6.30;99.90
45765;DHT22;31474;45.332;10.230;2023-03-03T01:02:19;6.30;99.90
45765;DHT22;31474;45.332;10.230;2023-03-03T01:04:49;6.30;99.90
45765;DHT22;31474;45.332;10.230;2023-03-03T01:07:15;6.30;99.90
45765;DHT22;31474;45.332;10.230;2023-03-03T01:09:41;6.30;99.90
45765;DHT22;31474;45.332;10.230;2023-03-03T01:12:06;6.20;99.90
45765;DHT22;31474;45.332;10.230;2023-03-03T01:14:32;6.20;99.90
45765;DHT22;31474;45.332;10.230;2023-03-03T01:16:58;6.20;99.90
45765;DHT22;31474;45.332;10.230;2023-03-03T01:19:24;6.10;99.90
45765;DHT22;31474;45.332;10.230;2023-03-03T01:21:50;6.10;99.90
45765;DHT22;31474;45.332;10.230;2023-03-03T01:24:16;6.00;99.90
45765;DHT22;31474;45.332;10.230;2023-03-03T01:26:41;6.00;99.90
45765;DHT22;31474;45.332;10.230;2023-03-03T01:29:07;6.00;99.90
45765;DHT22;31474;45.332;10.230;2023-03-03T01:31:33;6.00;99.90
45765;DHT22;31474;45.332;10.230;2023-03-03T01:33:58;5.90;99.90
45765;DHT22;31474;45.332;10.230;2023-03-03T01:36:26;5.90;99.90
45765;DHT22;31474;45.332;10.230;2023-03-03T01:38:52;5.90;99.90
45765;DHT22;31474;45.332;10.230;2023-03-03T01:41:18;5.90;99.90
45765;DHT22;31474;45.332;10.230;2023-03-03T01:43:46;5.90;99.90
45765;DHT22;31474;45.332;10.230;2023-03-03T01:46:40;5.80;99.90
45765;DHT22;31474;45.332;10.230;2023-03-03T01:49:13;5.80;99.90
45765;DHT22;31474;45.332;10.230;2023-03-03T01:52:14;5.80;99.90
45765;DHT22;31474;45.332;10.230;2023-03-03T01:54:48;5.80;99.90
45765;DHT22;31474;45.332;10.230;2023-03-03T01:57:21;5.80;99.90
45765;DHT22;31474;45.332;10.230;2023-03-03T01:59:50;5.90;99.90
45765;DHT22;31474;45.332;10.230;2023-03-03T02:02:17;5.90;99.90
45765;DHT22;31474;45.332;10.230;2023-03-03T02:04:43;5.90;99.90
45765;DHT22;31474;45.332;10.230;2023-03-03T02:07:10;5.80;99.90
45765;DHT22;31474;45.332;10.230;2023-03-03T02:09:59;5.80;99.90
45765;DHT22;31474;45.332;10.230;2023-03-03T02:15:01;5.80;99.90
45765;DHT22;31474;45.332;10.230;2023-03-03T02:17:27;5.70;99.90
45765;DHT22;31474;45.332;10.230;2023-03-03T02:20:06;5.70;99.90
45765;DHT22;31474;45.332;10.230;2023-03-03T02:22:48;5.80;99.90
45765;DHT22;31474;45.332;10.230;2023-03-03T02:25:25;5.80;99.90
45765;DHT22;31474;45.332;10.230;2023-03-03T02:27:54;5.80;99.90
45765;DHT22;31474;45.332;10.230;2023-03-03T02:30:22;5.70;99.90
45765;DHT22;31474;45.332;10.230;2023-03-03T02:32:48;5.70;99.90
45765;DHT22;31474;45.332;10.230;2023-03-03T02:35:30;5.60;99.90
45765;DHT22;31474;45.332;10.230;2023-03-03T02:37:59;5.60;99.90
45765;DHT22;31474;45.332;10.230;2023-03-03T02:40:29;5.60;99.90
45765;DHT22;31474;45.332;10.230;2023-03-03T02:42:57;5.50;99.90
45765;DHT22;31474;45.332;10.230;2023-03-03T02:45:24;5.50;99.90
45765;DHT22;31474;45.332;10.230;2023-03-03T02:47:50;5.50;99.90
45765;DHT22;31474;45.332;10.230;2023-03-03T02:50:16;5.40;99.90
45765;DHT22;31474;45.332;10.230;2023-03-03T02:52:42;5.40;99.90
45765;DHT22;31474;45.332;10.230;2023-03-03T02:55:08;5.40;99.90
45765;DHT22;31474;45.332;10.230;2023-03-03T02:57:33;5.40;99.90
45765;DHT22;31474;45.332;10.230;2023-03-03T02:59:59;5.50;99.90
45765;DHT22;31474;45.332;10.230;2023-03-03T03:02:25;5.50;99.90
45765;DHT22;31474;45.332;10.230;2023-03-03T03:04:51;5.50;99.90
45765;DHT22;31474;45.332;10.230;2023-03-03T03:07:17;5.50;99.90
45765;DHT22;31474;45.332;10.230;2023-03-03T03:09:43;5.40;99.90
45765;DHT22;31474;45.332;10.230;2023-03-03T03:12:09;5.40;99.90
45765;DHT22;31474;45.332;10.230;2023-03-03T03:14:34;5.40;99.90
45765;DHT22;31474;45.332;10.230;2023-03-03T03:17:00;5.30;99.90
45765;DHT22;31474;45.332;10.230;2023-03-03T03:19:25;5.30;99.90
45765;DHT22;31474;45.332;10.230;2023-03-03T03:21:51;5.30;99.90
45765;DHT22;31474;45.332;10.230;2023-03-03T03:24:17;5.30;99.90
45765;DHT22;31474;45.332;10.230;2023-03-03T03:26:42;5.40;99.90
45765;DHT22;31474;45.332;10.230;2023-03-03T03:29:08;5.40;99.90
45765;DHT22;31474;45.332;10.230;2023-03-03T03:31:35;5.40;99.90
45765;DHT22;31474;45.332;10.230;2023-03-03T03:34:01;5.40;99.90
45765;DHT22;31474;45.332;10.230;2023-03-03T03:36:26;5.30;99.90
45765;DHT22;31474;45.332;10.230;2023-03-03T03:38:52;5.40;99.90
45765;DHT22;31474;45.332;10.230;2023-03-03T03:41:18;5.30;99.90
45765;DHT22;31474;45.332;10.230;2023-03-03T03:43:44;5.30;99.90
45765;DHT22;31474;45.332;10.230;2023-03-03T03:46:09;5.30;99.90
45765;DHT22;31474;45.332;10.230;2023-03-03T03:48:35;5.30;99.90
45765;DHT22;31474;45.332;10.230;2023-03-03T03:51:01;5.20;99.90
45765;DHT22;31474;45.332;10.230;2023-03-03T03:53:27;5.20;99.90
45765;DHT22;31474;45.332;10.230;2023-03-03T03:55:52;5.20;99.90
45765;DHT22;31474;45.332;10.230;2023-03-03T03:58:18;5.20;99.90
45765;DHT22;31474;45.332;10.230;2023-03-03T04:00:45;5.20;99.90
45765;DHT22;31474;45.332;10.230;2023-03-03T04:03:11;5.20;99.90
45765;DHT22;31474;45.332;10.230;2023-03-03T04:05:38;5.10;99.90
45765;DHT22;31474;45.332;10.230;2023-03-03T04:08:04;5.10;99.90
45765;DHT22;31474;45.332;10.230;2023-03-03T04:10:30;5.20;99.90
45765;DHT22;31474;45.332;10.230;2023-03-03T04:12:56;5.20;99.90
45765;DHT22;31474;45.332;10.230;2023-03-03T04:15:21;5.20;99.90
45765;DHT22;31474;45.332;10.230;2023-03-03T04:17:47;5.20;99.90
45765;DHT22;31474;45.332;10.230;2023-03-03T04:20:14;5.20;99.90
45765;DHT22;31474;45.332;10.230;2023-03-03T04:22:41;5.20;99.90
45765;DHT22;31474;45.332;10.230;2023-03-03T04:25:07;5.20;99.90
45765;DHT22;31474;45.332;10.230;2023-03-03T04:27:34;5.10;99.90
45765;DHT22;31474;45.332;10.230;2023-03-03T04:30:00;5.20;99.90
45765;DHT22;31474;45.332;10.230;2023-03-03T04:32:26;5.10;99.90
45765;DHT22;31474;45.332;10.230;2023-03-03T04:34:52;5.10;99.90
45765;DHT22;31474;45.332;10.230;2023-03-03T04:37:18;5.20;99.90
45765;DHT22;31474;45.332;10.230;2023-03-03T04:39:44;5.10;99.90
45765;DHT22;31474;45.332;10.230;2023-03-03T04:42:10;5.20;99.90
45765;DHT22;31474;45.332;10.230;2023-03-03T04:44:36;5.20;99.90
45765;DHT22;31474;45.332;10.230;2023-03-03T04:47:01;5.20;99.90
45765;DHT22;31474;45.332;10.230;2023-03-03T04:49:27;5.10;99.90
45765;DHT22;31474;45.332;10.230;2023-03-03T04:51:53;5.10;99.90
45765;DHT22;31474;45.332;10.230;2023-03-03T04:54:18;5.10;99.90
45765;DHT22;31474;45.332;10.230;2023-03-03T04:56:44;5.20;99.90
45765;DHT22;31474;45.332;10.230;2023-03-03T04:59:10;5.20;99.90
45765;DHT22;31474;45.332;10.230;2023-03-03T05:01:36;5.20;99.90
45765;DHT22;31474;45.332;10.230;2023-03-03T05:04:01;5.20;99.90
45765;DHT22;31474;45.332;10.230;2023-03-03T05:06:27;5.20;99.90
45765;DHT22;31474;45.332;10.230;2023-03-03T05:08:53;5.10;99.90
45765;DHT22;31474;45.332;10.230;2023-03-03T05:11:19;5.10;99.90
45765;DHT22;31474;45.332;10.230;2023-03-03T05:13:44;5.10;99.90
45765;DHT22;31474;45.332;10.230;2023-03-03T05:16:10;5.00;99.90
45765;DHT22;31474;45.332;10.230;2023-03-03T05:18:36;5.00;99.90
45765;DHT22;31474;45.332;10.230;2023-03-03T05:21:02;5.00;99.90
45765;DHT22;31474;45.332;10.230;2023-03-03T05:23:28;5.00;99.90
45765;DHT22;31474;45.332;10.230;2023-03-03T05:25:54;5.00;99.90
45765;DHT22;31474;45.332;10.230;2023-03-03T05:28:20;5.00;99.90
45765;DHT22;31474;45.332;10.230;2023-03-03T05:30:46;5.00;99.90
45765;DHT22;31474;45.332;10.230;2023-03-03T05:33:13;4.90;99.90
45765;DHT22;31474;45.332;10.230;2023-03-03T05:35:39;4.90;99.90
45765;DHT22;31474;45.332;10.230;2023-03-03T05:38:05;4.90;99.90
45765;DHT22;31474;45.332;10.230;2023-03-03T05:40:30;4.90;99.90
45765;DHT22;31474;45.332;10.230;2023-03-03T05:42:56;4.90;99.90
45765;DHT22;31474;45.332;10.230;2023-03-03T05:45:23;4.80;99.90
45765;DHT22;31474;45.332;10.230;2023-03-03T05:47:52;4.80;99.90
45765;DHT22;31474;45.332;10.230;2023-03-03T05:50:19;4.70;99.90
45765;DHT22;31474;45.332;10.230;2023-03-03T05:52:50;4.70;99.90
45765;DHT22;31474;45.332;10.230;2023-03-03T05:55:16;4.50;99.90
45765;DHT22;31474;45.332;10.230;2023-03-03T05:57:42;4.40;99.90
45765;DHT22;31474;45.332;10.230;2023-03-03T06:00:09;4.40;99.90
45765;DHT22;31474;45.332;10.230;2023-03-03T06:02:35;4.40;99.90
45765;DHT22;31474;45.332;10.230;2023-03-03T06:05:00;4.50;99.90
45765;DHT22;31474;45.332;10.230;2023-03-03T06:07:26;4.40;99.90
45765;DHT22;31474;45.332;10.230;2023-03-03T06:09:52;4.50;99.90
45765;DHT22;31474;45.332;10.230;2023-03-03T06:12:18;4.60;99.90
45765;DHT22;31474;45.332;10.230;2023-03-03T06:14:43;4.60;99.90
45765;DHT22;31474;45.332;10.230;2023-03-03T06:17:09;4.70;99.90
45765;DHT22;31474;45.332;10.230;2023-03-03T06:19:35;4.70;99.90
45765;DHT22;31474;45.332;10.230;2023-03-03T06:22:01;4.80;99.90
45765;DHT22;31474;45.332;10.230;2023-03-03T06:24:27;4.90;99.90
45765;DHT22;31474;45.332;10.230;2023-03-03T06:26:56;5.00;99.90
45765;DHT22;31474;45.332;10.230;2023-03-03T06:29:21;5.00;99.90
45765;DHT22;31474;45.332;10.230;2023-03-03T06:31:47;5.00;99.90
45765;DHT22;31474;45.332;10.230;2023-03-03T06:34:13;5.10;99.90
45765;DHT22;31474;45.332;10.230;2023-03-03T06:36:38;5.20;99.90
45765;DHT22;31474;45.332;10.230;2023-03-03T06:39:04;5.10;99.90
45765;DHT22;31474;45.332;10.230;2023-03-03T06:41:30;5.10;99.90
45765;DHT22;31474;45.332;10.230;2023-03-03T06:43:56;5.20;99.90
45765;DHT22;31474;45.332;10.230;2023-03-03T06:46:22;5.20;99.90
45765;DHT22;31474;45.332;10.230;2023-03-03T06:48:48;5.30;99.90
45765;DHT22;31474;45.332;10.230;2023-03-03T06:51:23;5.40;99.90
45765;DHT22;31474;45.332;10.230;2023-03-03T06:53:57;5.60;99.90
45765;DHT22;31474;45.332;10.230;2023-03-03T06:56:23;5.70;99.90
45765;DHT22;31474;45.332;10.230;2023-03-03T06:58:55;5.80;99.90
45765;DHT22;31474;45.332;10.230;2023-03-03T07:01:21;5.90;99.90
45765;DHT22;31474;45.332;10.230;2023-03-03T07:03:46;6.10;99.90
45765;DHT22;31474;45.332;10.230;2023-03-03T07:06:20;6.20;99.90
45765;DHT22;31474;45.332;10.230;2023-03-03T07:08:47;6.40;99.90
45765;DHT22;31474;45.332;10.230;2023-03-03T07:11:17;6.40;99.90
45765;DHT22;31474;45.332;10.230;2023-03-03T07:13:47;6.50;99.90
45765;DHT22;31474;45.332;10.230;2023-03-03T07:16:13;6.60;99.90
45765;DHT22;31474;45.332;10.230;2023-03-03T07:18:50;6.70;99.90
45765;DHT22;31474;45.332;10.230;2023-03-03T07:21:25;6.80;99.90
45765;DHT22;31474;45.332;10.230;2023-03-03T07:23:55;7.00;99.90
45765;DHT22;31474;45.332;10.230;2023-03-03T07:28:55;7.40;99.90
45765;DHT22;31474;45.332;10.230;2023-03-03T07:33:51;7.70;99.90
45765;DHT22;31474;45.332;10.230;2023-03-03T07:36:44;7.90;99.90
45765;DHT22;31474;45.332;10.230;2023-03-03T07:39:35;8.00;99.90
45765;DHT22;31474;45.332;10.230;2023-03-03T07:42:08;8.30;99.90
45765;DHT22;31474;45.332;10.230;2023-03-03T07:44:38;8.40;99.90
45765;DHT22;31474;45.332;10.230;2023-03-03T07:47:21;8.50;99.90
45765;DHT22;31474;45.332;10.230;2023-03-03T07:49:48;8.70;99.90
45765;DHT22;31474;45.332;10.230;2023-03-03T07:54:54;8.90;99.90
45765;DHT22;31474;45.332;10.230;2023-03-03T07:57:37;9.00;99.90
45765;DHT22;31474;45.332;10.230;2023-03-03T08:03:19;9.20;99.90
45765;DHT22;31474;45.332;10.230;2023-03-03T08:05:49;9.40;99.90
45765;DHT22;31474;45.332;10.230;2023-03-03T08:08:35;9.50;99.90
45765;DHT22;31474;45.332;10.230;2023-03-03T08:11:06;9.60;99.90
45765;DHT22;31474;45.332;10.230;2023-03-03T08:18:42;9.80;99.90
45765;DHT22;31474;45.332;10.230;2023-03-03T08:23:36;9.90;99.90
45765;DHT22;31474;45.332;10.230;2023-03-03T08:26:01;9.90;99.90
45765;DHT22;31474;45.332;10.230;2023-03-03T08:28:27;10.00;99.90
45765;DHT22;31474;45.332;10.230;2023-03-03T08:30:53;10.10;99.90
45765;DHT22;31474;45.332;10.230;2023-03-03T08:33:18;10.10;99.90
45765;DHT22;31474;45.332;10.230;2023-03-03T08:35:44;10.20;99.90
45765;DHT22;31474;45.332;10.230;2023-03-03T08:38:12;10.20;99.90
45765;DHT22;31474;45.332;10.230;2023-03-03T08:40:38;10.40;99.90
45765;DHT22;31474;45.332;10.230;2023-03-03T08:43:04;10.50;99.90
45765;DHT22;31474;45.332;10.230;2023-03-03T08:45:30;10.60;99.90
45765;DHT22;31474;45.332;10.230;2023-03-03T08:47:56;10.70;99.90
45765;DHT22;31474;45.332;10.230;2023-03-03T08:50:24;10.90;99.90
45765;DHT22;31474;45.332;10.230;2023-03-03T08:52:50;11.10;99.90
45765;DHT22;31474;45.332;10.230;2023-03-03T08:55:16;11.30;99.90
45765;DHT22;31474;45.332;10.230;2023-03-03T08:57:42;11.40;99.90
45765;DHT22;31474;45.332;10.230;2023-03-03T09:00:10;11.50;99.90
45765;DHT22;31474;45.332;10.230;2023-03-03T09:02:37;11.60;99.90
45765;DHT22;31474;45.332;10.230;2023-03-03T09:05:03;11.80;99.90
45765;DHT22;31474;45.332;10.230;2023-03-03T09:07:28;11.90;99.90
45765;DHT22;31474;45.332;10.230;2023-03-03T09:09:54;12.00;99.90
45765;DHT22;31474;45.332;10.230;2023-03-03T09:12:33;12.00;99.90
45765;DHT22;31474;45.332;10.230;2023-03-03T09:15:24;12.00;99.90
45765;DHT22;31474;45.332;10.230;2023-03-03T09:17:48;12.10;99.90
45765;DHT22;31474;45.332;10.230;2023-03-03T09:20:28;12.20;99.90
45765;DHT22;31474;45.332;10.230;2023-03-03T09:22:56;12.40;99.90
45765;DHT22;31474;45.332;10.230;2023-03-03T09:25:33;12.60;99.90
45765;DHT22;31474;45.332;10.230;2023-03-03T09:28:00;12.70;99.90
45765;DHT22;31474;45.332;10.230;2023-03-03T09:32:58;12.60;99.90
45765;DHT22;31474;45.332;10.230;2023-03-03T09:37:52;12.60;99.90
45765;DHT22;31474;45.332;10.230;2023-03-03T09:40:55;12.60;99.90
45765;DHT22;31474;45.332;10.230;2023-03-03T09:50:03;13.00;99.90
45765;DHT22;31474;45.332;10.230;2023-03-03T10:00:41;13.30;99.90
45765;DHT22;31474;45.332;10.230;2023-03-03T10:03:27;13.30;99.90
45765;DHT22;31474;45.332;10.230;2023-03-03T10:05:57;13.40;99.90
45765;DHT22;31474;45.332;10.230;2023-03-03T10:22:55;13.50;99.90
45765;DHT22;31474;45.332;10.230;2023-03-03T10:30:56;13.70;99.90
45765;DHT22;31474;45.332;10.230;2023-03-03T10:50:18;13.90;99.90
45765;DHT22;31474;45.332;10.230;2023-03-03T10:57:57;13.90;99.90
45765;DHT22;31474;45.332;10.230;2023-03-03T11:03:49;13.90;99.90
45765;DHT22;31474;45.332;10.230;2023-03-03T11:06:28;13.90;99.90
45765;DHT22;31474;45.332;10.230;2023-03-03T11:11:59;14.10;99.90
45765;DHT22;31474;45.332;10.230;2023-03-03T11:17:22;14.20;99.90
45765;DHT22;31474;45.332;10.230;2023-03-03T11:23:22;14.30;99.90
45765;DHT22;31474;45.332;10.230;2023-03-03T11:31:25;14.70;99.90
45765;DHT22;31474;45.332;10.230;2023-03-03T11:37:06;14.70;99.90
45765;DHT22;31474;45.332;10.230;2023-03-03T11:39:33;14.70;99.90
45765;DHT22;31474;45.332;10.230;2023-03-03T11:42:14;14.80;99.90
45765;DHT22;31474;45.332;10.230;2023-03-03T11:44:51;14.90;99.90
45765;DHT22;31474;45.332;10.230;2023-03-03T11:50:19;14.90;99.90
45765;DHT22;31474;45.332;10.230;2023-03-03T11:53:23;14.90;99.90
45765;DHT22;31474;45.332;10.230;2023-03-03T11:56:01;14.90;99.90
45765;DHT22;31474;45.332;10.230;2023-03-03T11:58:33;14.90;99.90
45765;DHT22;31474;45.332;10.230;2023-03-03T12:01:25;14.80;99.90
45765;DHT22;31474;45.332;10.230;2023-03-03T12:03:54;14.90;99.90
45765;DHT22;31474;45.332;10.230;2023-03-03T12:20:50;15.10;99.90
45765;DHT22;31474;45.332;10.230;2023-03-03T12:23:45;15.20;99.90
45765;DHT22;31474;45.332;10.230;2023-03-03T12:26:19;15.30;99.90
45765;DHT22;31474;45.332;10.230;2023-03-03T12:28:53;15.30;99.90
45765;DHT22;31474;45.332;10.230;2023-03-03T12:42:11;15.50;99.90
45765;DHT22;31474;45.332;10.230;2023-03-03T12:44:57;15.50;99.90
45765;DHT22;31474;45.332;10.230;2023-03-03T12:47:37;15.50;99.90
45765;DHT22;31474;45.332;10.230;2023-03-03T12:53:11;15.40;99.90
45765;DHT22;31474;45.332;10.230;2023-03-03T12:56:03;15.40;99.90
45765;DHT22;31474;45.332;10.230;2023-03-03T12:58:51;15.40;99.90
45765;DHT22;31474;45.332;10.230;2023-03-03T13:04:28;15.50;99.90
45765;DHT22;31474;45.332;10.230;2023-03-03T13:07:36;15.40;99.90
45765;DHT22;31474;45.332;10.230;2023-03-03T13:15:29;15.60;99.90
45765;DHT22;31474;45.332;10.230;2023-03-03T13:21:16;15.70;99.90
45765;DHT22;31474;45.332;10.230;2023-03-03T13:31:58;15.50;99.90
45765;DHT22;31474;45.332;10.230;2023-03-03T13:39:59;15.40;99.90
45765;DHT22;31474;45.332;10.230;2023-03-03T13:45:01;15.40;99.90
45765;DHT22;31474;45.332;10.230;2023-03-03T13:50:19;15.30;99.90
45765;DHT22;31474;45.332;10.230;2023-03-03T13:55:47;15.30;99.90
45765;DHT22;31474;45.332;10.230;2023-03-03T13:58:25;15.30;99.90
45765;DHT22;31474;45.332;10.230;2023-03-03T14:01:30;15.30;99.90
45765;DHT22;31474;45.332;10.230;2023-03-03T14:07:22;15.20;99.90
45765;DHT22;31474;45.332;10.230;2023-03-03T14:12:49;15.30;99.90
45765;DHT22;31474;45.332;10.230;2023-03-03T14:15:28;15.20;99.90
45765;DHT22;31474;45.332;10.230;2023-03-03T14:20:47;15.30;99.90
45765;DHT22;31474;45.332;10.230;2023-03-03T14:26:15;15.30;99.90
45765;DHT22;31474;45.332;10.230;2023-03-03T14:28:48;15.30;99.90
45765;DHT22;31474;45.332;10.230;2023-03-03T14:31:25;15.30;99.90
45765;DHT22;31474;45.332;10.230;2023-03-03T14:36:32;15.20;99.90
45765;DHT22;31474;45.332;10.230;2023-03-03T14:39:00;15.20;99.90
45765;DHT22;31474;45.332;10.230;2023-03-03T14:41:52;15.20;99.90
45765;DHT22;31474;45.332;10.230;2023-03-03T14:44:28;15.10;99.90
45765;DHT22;31474;45.332;10.230;2023-03-03T14:47:20;15.10;99.90
45765;DHT22;31474;45.332;10.230;2023-03-03T14:49:46;15.10;99.90
45765;DHT22;31474;45.332;10.230;2023-03-03T14:54:43;15.10;99.90
45765;DHT22;31474;45.332;10.230;2023-03-03T14:57:16;15.10;99.90
45765;DHT22;31474;45.332;10.230;2023-03-03T15:00:08;15.10;99.90
45765;DHT22;31474;45.332;10.230;2023-03-03T15:03:22;15.10;99.90
45765;DHT22;31474;45.332;10.230;2023-03-03T15:05:54;15.10;99.90
45765;DHT22;31474;45.332;10.230;2023-03-03T15:08:34;15.10;99.90
45765;DHT22;31474;45.332;10.230;2023-03-03T15:11:39;15.00;99.90
45765;DHT22;31474;45.332;10.230;2023-03-03T15:14:16;14.90;99.60
45765;DHT22;31474;45.332;10.230;2023-03-03T15:16:42;14.80;99.90
45765;DHT22;31474;45.332;10.230;2023-03-03T15:21:56;14.80;99.90
45765;DHT22;31474;45.332;10.230;2023-03-03T15:24:39;14.70;99.90
45765;DHT22;31474;45.332;10.230;2023-03-03T15:30:29;14.60;99.90
45765;DHT22;31474;45.332;10.230;2023-03-03T15:35:25;14.50;99.90
45765;DHT22;31474;45.332;10.230;2023-03-03T15:38:22;14.50;99.90
45765;DHT22;31474;45.332;10.230;2023-03-03T15:40:57;14.50;99.90
45765;DHT22;31474;45.332;10.230;2023-03-03T15:43:42;14.50;99.90
45765;DHT22;31474;45.332;10.230;2023-03-03T15:46:42;14.50;99.90
45765;DHT22;31474;45.332;10.230;2023-03-03T15:55:05;14.30;99.90
45765;DHT22;31474;45.332;10.230;2023-03-03T16:00:54;14.20;99.90
45765;DHT22;31474;45.332;10.230;2023-03-03T16:03:30;14.20;99.90
45765;DHT22;31474;45.332;10.230;2023-03-03T16:06:04;14.10;99.90
45765;DHT22;31474;45.332;10.230;2023-03-03T16:11:45;14.00;99.90
45765;DHT22;31474;45.332;10.230;2023-03-03T16:28:25;13.90;99.90
45765;DHT22;31474;45.332;10.230;2023-03-03T16:31:00;13.80;99.90
45765;DHT22;31474;45.332;10.230;2023-03-03T16:33:49;13.80;99.90
45765;DHT22;31474;45.332;10.230;2023-03-03T16:39:05;13.70;99.90
45765;DHT22;31474;45.332;10.230;2023-03-03T16:41:37;13.70;99.90
45765;DHT22;31474;45.332;10.230;2023-03-03T16:44:33;13.70;99.90
45765;DHT22;31474;45.332;10.230;2023-03-03T16:52:19;13.50;99.90
45765;DHT22;31474;45.332;10.230;2023-03-03T16:55:16;13.40;99.90
45765;DHT22;31474;45.332;10.230;2023-03-03T17:03:45;13.20;99.90
45765;DHT22;31474;45.332;10.230;2023-03-03T17:06:22;13.20;99.90
45765;DHT22;31474;45.332;10.230;2023-03-03T17:12:04;13.10;99.90
45765;DHT22;31474;45.332;10.230;2023-03-03T17:20:44;12.90;99.90
45765;DHT22;31474;45.332;10.230;2023-03-03T17:28:49;12.70;99.90
45765;DHT22;31474;45.332;10.230;2023-03-03T17:42:55;12.40;99.90
45765;DHT22;31474;45.332;10.230;2023-03-03T17:45:23;12.30;99.90
45765;DHT22;31474;45.332;10.230;2023-03-03T17:50:53;12.20;99.90
45765;DHT22;31474;45.332;10.230;2023-03-03T17:53:41;12.10;99.90
45765;DHT22;31474;45.332;10.230;2023-03-03T17:56:27;12.10;99.90
45765;DHT22;31474;45.332;10.230;2023-03-03T18:02:08;12.00;99.90
45765;DHT22;31474;45.332;10.230;2023-03-03T18:11:02;11.70;99.90
45765;DHT22;31474;45.332;10.230;2023-03-03T18:26:52;11.60;99.90
45765;DHT22;31474;45.332;10.230;2023-03-03T18:29:28;11.50;99.90
45765;DHT22;31474;45.332;10.230;2023-03-03T18:34:34;11.40;99.90
45765;DHT22;31474;45.332;10.230;2023-03-03T18:44:55;11.30;99.90
45765;DHT22;31474;45.332;10.230;2023-03-03T18:50:37;11.20;99.90
45765;DHT22;31474;45.332;10.230;2023-03-03T18:53:25;11.20;99.90
45765;DHT22;31474;45.332;10.230;2023-03-03T18:55:59;11.10;99.90
45765;DHT22;31474;45.332;10.230;2023-03-03T19:03:31;11.00;99.90
45765;DHT22;31474;45.332;10.230;2023-03-03T19:05:57;10.90;99.90
45765;DHT22;31474;45.332;10.230;2023-03-03T19:13:37;10.70;99.90
45765;DHT22;31474;45.332;10.230;2023-03-03T19:16:04;10.70;99.90
45765;DHT22;31474;45.332;10.230;2023-03-03T19:18:56;10.70;99.90
45765;DHT22;31474;45.332;10.230;2023-03-03T19:21:38;10.60;99.90
45765;DHT22;31474;45.332;10.230;2023-03-03T19:24:31;10.60;99.90
45765;DHT22;31474;45.332;10.230;2023-03-03T19:32:42;10.40;99.90
45765;DHT22;31474;45.332;10.230;2023-03-03T19:40:36;10.30;99.90
45765;DHT22;31474;45.332;10.230;2023-03-03T19:48:59;10.10;99.90
45765;DHT22;31474;45.332;10.230;2023-03-03T19:54:50;10.00;99.90
45765;DHT22;31474;45.332;10.230;2023-03-03T19:57:39;10.00;99.90
45765;DHT22;31474;45.332;10.230;2023-03-03T20:06:56;9.90;99.90
45765;DHT22;31474;45.332;10.230;2023-03-03T20:09:07;9.80;99.90
45765;DHT22;31474;45.332;10.230;2023-03-03T20:14:46;9.80;99.90
45765;DHT22;31474;45.332;10.230;2023-03-03T20:25:42;9.80;99.90
45765;DHT22;31474;45.332;10.230;2023-03-03T20:36:12;10.00;99.90
45765;DHT22;31474;45.332;10.230;2023-03-03T20:41:45;10.10;99.90
45765;DHT22;31474;45.332;10.230;2023-03-03T20:44:18;10.10;99.90
45765;DHT22;31474;45.332;10.230;2023-03-03T20:49:26;10.10;99.90
45765;DHT22;31474;45.332;10.230;2023-03-03T20:57:18;10.10;99.90
45765;DHT22;31474;45.332;10.230;2023-03-03T21:00:07;10.10;99.90
45765;DHT22;31474;45.332;10.230;2023-03-03T21:02:49;10.10;99.90
45765;DHT22;31474;45.332;10.230;2023-03-03T21:05:19;10.10;99.90
45765;DHT22;31474;45.332;10.230;2023-03-03T21:10:20;10.10;99.90
45765;DHT22;31474;45.332;10.230;2023-03-03T21:12:53;10.20;99.90
45765;DHT22;31474;45.332;10.230;2023-03-03T21:15:23;10.10;99.90
45765;DHT22;31474;45.332;10.230;2023-03-03T21:17:49;10.20;99.90
45765;DHT22;31474;45.332;10.230;2023-03-03T21:20:21;10.10;99.90
45765;DHT22;31474;45.332;10.230;2023-03-03T21:22:47;10.20;99.90
45765;DHT22;31474;45.332;10.230;2023-03-03T21:33:46;10.20;99.90
45765;DHT22;31474;45.332;10.230;2023-03-03T21:38:50;10.20;99.90
45765;DHT22;31474;45.332;10.230;2023-03-03T21:41:18;10.10;99.90
45765;DHT22;31474;45.332;10.230;2023-03-03T21:43:50;10.10;99.90
45765;DHT22;31474;45.332;10.230;2023-03-03T21:46:23;10.10;99.90
45765;DHT22;31474;45.332;10.230;2023-03-03T21:48:52;10.10;99.90
45765;DHT22;31474;45.332;10.230;2023-03-03T21:51:18;10.10;99.90
45765;DHT22;31474;45.332;10.230;2023-03-03T21:53:44;10.20;99.90
45765;DHT22;31474;45.332;10.230;2023-03-03T21:56:11;10.20;99.90
45765;DHT22;31474;45.332;10.230;2023-03-03T21:58:40;10.20;99.90
45765;DHT22;31474;45.332;10.230;2023-03-03T22:01:06;10.10;99.90
45765;DHT22;31474;45.332;10.230;2023-03-03T22:03:32;10.20;99.90
45765;DHT22;31474;45.332;10.230;2023-03-03T22:05:59;10.20;99.90
45765;DHT22;31474;45.332;10.230;2023-03-03T22:08:25;10.20;99.90
45765;DHT22;31474;45.332;10.230;2023-03-03T22:10:52;10.10;99.90
45765;DHT22;31474;45.332;10.230;2023-03-03T22:13:24;10.20;99.90
45765;DHT22;31474;45.332;10.230;2023-03-03T22:15:51;10.10;99.90
45765;DHT22;31474;45.332;10.230;2023-03-03T22:18:18;10.10;99.90